Time;durP1;ratioP1;P1;durP2;ratioP2;P2;SDS_P1;SDS_P2;PMS_P1;PMS_P2;Temp;Humidity;BMP_temperature;BMP_pressure;BME280_temperature;BME280_humidity;BME280_pressure;Samples;Min_cycle;Max_cycle;Signal;HPM_P1;HPM_P2
2022/07/22 00:00:18;;;;;;;25.03;22.43;;;16.40;99.90;;;;;;5079450;28;20440;-60
2022/07/22 00:02:48;;;;;;;24.50;21.90;;;16.40;99.90;;;;;;5078406;28;20501;-57
2022/07/22 00:05:21;;;;;;;23.93;21.53;;;16.30;99.90;;;;;;5078625;28;20461;-59
2022/07/22 00:07:49;;;;;;;25.67;23.07;;;16.30;99.90;;;;;;5078727;28;20468;-59
2022/07/22 00:10:16;;;;;;;24.77;22.17;;;16.30;99.90;;;;;;5079279;28;20958;-60
2022/07/22 00:12:44;;;;;;;24.43;22.03;;;16.40;99.90;;;;;;5079198;28;20749;-59
2022/07/22 00:15:11;;;;;;;21.33;19.10;;;16.30;99.90;;;;;;5079707;28;20551;-58
2022/07/22 00:17:38;;;;;;;22.93;20.63;;;16.30;99.90;;;;;;5079054;28;20461;-59
2022/07/22 00:20:08;;;;;;;24.33;21.93;;;16.30;99.90;;;;;;5079093;28;20439;-60
2022/07/22 00:22:35;;;;;;;24.63;22.03;;;16.30;99.90;;;;;;5078927;28;20469;-60
2022/07/22 00:25:08;;;;;;;23.37;20.87;;;16.40;99.90;;;;;;5079346;28;20468;-58
2022/07/22 00:27:35;;;;;;;21.57;19.40;;;16.30;99.90;;;;;;5079673;28;20505;-58
2022/07/22 00:30:02;;;;;;;24.00;21.40;;;16.30;99.90;;;;;;5079404;28;20447;-56
2022/07/22 00:32:31;;;;;;;24.50;21.97;;;16.30;99.90;;;;;;5079624;28;20457;-57
2022/07/22 00:34:58;;;;;;;23.37;20.97;;;16.40;99.90;;;;;;5078974;28;20464;-55
2022/07/22 00:37:25;;;;;;;18.53;16.70;;;16.40;99.90;;;;;;5078817;28;20467;-53
2022/07/22 00:39:52;;;;;;;18.60;16.83;;;16.40;99.90;;;;;;5079335;28;20556;-59
2022/07/22 00:42:21;;;;;;;17.90;16.20;;;16.30;99.90;;;;;;5079241;28;20920;-60
2022/07/22 00:44:51;;;;;;;16.33;14.73;;;16.30;99.90;;;;;;5078855;28;20494;-57
2022/07/22 00:47:21;;;;;;;14.17;12.77;;;16.30;99.90;;;;;;5079083;28;20874;-59
2022/07/22 00:49:48;;;;;;;13.60;12.30;;;16.20;99.90;;;;;;5079103;28;20868;-58
2022/07/22 00:52:15;;;;;;;17.87;12.97;;;16.10;99.90;;;;;;5078779;28;20466;-59
2022/07/22 00:54:43;;;;;;;13.60;12.30;;;16.10;99.90;;;;;;5078633;28;20443;-58
2022/07/22 00:57:10;;;;;;;13.60;11.73;;;16.10;99.90;;;;;;5078891;28;20870;-57
2022/07/22 00:59:38;;;;;;;11.10;10.07;;;16.10;99.90;;;;;;5078418;28;20711;-58
2022/07/22 01:02:06;;;;;;;12.67;11.47;;;16.20;99.90;;;;;;5078575;28;20874;-59
2022/07/22 01:04:33;;;;;;;13.40;12.00;;;16.10;99.90;;;;;;5078807;28;20509;-57
2022/07/22 01:07:03;;;;;;;20.10;10.97;;;16.20;99.90;;;;;;5078206;28;20622;-57
2022/07/22 01:09:30;;;;;;;12.00;10.80;;;16.20;99.90;;;;;;5078368;28;20530;-59
2022/07/22 01:11:57;;;;;;;10.37;9.30;;;16.20;99.90;;;;;;5078735;28;20552;-59
2022/07/22 01:14:25;;;;;;;10.60;9.20;;;16.30;99.90;;;;;;5078584;28;20431;-61
2022/07/22 01:16:53;;;;;;;9.47;8.57;;;16.20;99.90;;;;;;5078481;28;20468;-61
2022/07/22 01:19:23;;;;;;;10.03;9.07;;;16.10;99.90;;;;;;5079023;28;20465;-61
2022/07/22 01:21:51;;;;;;;8.90;7.87;;;16.20;99.90;;;;;;5078799;28;20705;-60
2022/07/22 01:24:18;;;;;;;5.57;5.07;;;16.10;99.90;;;;;;5077789;28;20494;-59
2022/07/22 01:26:48;;;;;;;4.43;3.80;;;15.90;99.90;;;;;;5077943;28;20440;-57
2022/07/22 01:29:15;;;;;;;4.80;3.87;;;15.80;99.90;;;;;;5077864;28;20452;-55
2022/07/22 01:31:43;;;;;;;3.67;3.37;;;15.80;99.90;;;;;;5077929;28;20465;-59
2022/07/22 01:34:10;;;;;;;3.67;3.10;;;15.80;99.90;;;;;;5077933;28;20457;-59
2022/07/22 01:36:40;;;;;;;4.30;3.90;;;15.80;99.90;;;;;;5078250;28;20913;-57
2022/07/22 01:39:09;;;;;;;5.57;3.50;;;15.70;99.90;;;;;;5077924;28;20868;-56
2022/07/22 01:41:36;;;;;;;4.13;3.73;;;15.70;99.90;;;;;;5077777;28;20444;-60
2022/07/22 01:44:04;;;;;;;4.10;3.73;;;15.70;99.90;;;;;;5078408;28;20486;-58
2022/07/22 01:46:31;;;;;;;4.73;4.33;;;15.60;99.90;;;;;;5077338;28;20438;-56
2022/07/22 01:49:00;;;;;;;6.20;4.30;;;15.70;99.90;;;;;;5077730;28;20471;-58
2022/07/22 01:51:31;;;;;;;6.50;3.90;;;15.70;99.90;;;;;;5077377;28;20489;-59
2022/07/22 01:54:01;;;;;;;4.90;4.43;;;15.70;99.90;;;;;;5077416;28;20442;-58
2022/07/22 01:56:30;;;;;;;5.93;5.43;;;15.70;99.90;;;;;;5077815;28;20475;-60
2022/07/22 01:58:57;;;;;;;4.90;4.50;;;15.60;99.90;;;;;;5077737;28;20432;-56
2022/07/22 02:01:27;;;;;;;8.80;4.47;;;15.60;99.90;;;;;;5077451;28;20465;-57
2022/07/22 02:03:56;;;;;;;5.33;4.83;;;15.60;99.90;;;;;;5077860;28;20467;-59
2022/07/22 02:06:26;;;;;;;5.93;4.70;;;15.70;99.90;;;;;;5077683;28;20920;-58
2022/07/22 02:08:53;;;;;;;5.97;5.37;;;15.70;99.90;;;;;;5077526;28;20461;-58
2022/07/22 02:11:20;;;;;;;6.77;5.40;;;15.70;99.90;;;;;;5077606;28;20444;-60
2022/07/22 02:13:49;;;;;;;7.20;6.27;;;15.60;99.90;;;;;;5077664;28;20431;-59
2022/07/22 02:16:18;;;;;;;6.47;5.57;;;15.60;99.90;;;;;;5077555;28;20440;-55
2022/07/22 02:18:51;;;;;;;7.57;6.30;;;15.60;99.90;;;;;;5077721;28;20461;-59
2022/07/22 02:21:19;;;;;;;7.13;6.43;;;15.60;99.90;;;;;;5077194;28;20472;-57
2022/07/22 02:23:46;;;;;;;6.80;6.20;;;15.60;99.90;;;;;;5077325;28;20493;-57
2022/07/22 02:26:19;;;;;;;6.07;5.43;;;15.60;99.90;;;;;;5077402;28;20472;-58
2022/07/22 02:28:46;;;;;;;6.73;5.83;;;15.60;99.90;;;;;;5077025;28;20468;-57
2022/07/22 02:31:17;;;;;;;7.47;5.80;;;15.70;99.90;;;;;;5077365;28;20436;-56
2022/07/22 02:33:48;;;;;;;7.57;6.83;;;15.60;99.90;;;;;;5077869;28;20906;-60
2022/07/22 02:36:15;;;;;;;7.37;6.57;;;15.70;99.90;;;;;;5077341;28;20876;-58
2022/07/22 02:38:43;;;;;;;5.87;5.33;;;15.70;99.90;;;;;;5077344;28;20471;-61
2022/07/22 02:41:14;;;;;;;8.20;6.00;;;15.70;99.90;;;;;;5077094;28;20870;-60
2022/07/22 02:43:41;;;;;;;6.20;5.60;;;15.80;99.90;;;;;;5077080;28;20468;-60
2022/07/22 02:46:10;;;;;;;6.87;6.07;;;15.70;99.90;;;;;;5076381;28;20459;-59
2022/07/22 02:48:39;;;;;;;6.30;5.70;;;15.70;99.90;;;;;;5077703;28;20464;-61
2022/07/22 02:51:06;;;;;;;6.53;5.93;;;15.60;99.90;;;;;;5077060;28;20459;-61
2022/07/22 02:53:38;;;;;;;6.30;5.27;;;15.70;99.90;;;;;;5077513;28;20476;-61
2022/07/22 02:56:05;;;;;;;7.10;6.00;;;15.70;99.90;;;;;;5076686;28;20883;-61
2022/07/22 02:58:35;;;;;;;7.70;5.97;;;15.70;99.90;;;;;;5077367;28;20460;-60
2022/07/22 03:01:02;;;;;;;7.10;5.80;;;15.70;99.90;;;;;;5076669;28;20950;-60
2022/07/22 03:03:29;;;;;;;6.23;5.63;;;15.70;99.90;;;;;;5077134;28;20487;-57
2022/07/22 03:05:58;;;;;;;6.37;5.63;;;15.60;99.90;;;;;;5076732;28;20837;-57
2022/07/22 03:08:26;;;;;;;7.03;6.33;;;15.70;99.90;;;;;;5077261;28;20471;-59
2022/07/22 03:10:56;;;;;;;6.97;5.83;;;15.60;99.90;;;;;;5076415;28;20463;-58
2022/07/22 03:13:23;;;;;;;7.27;6.50;;;15.60;99.90;;;;;;5076740;28;20465;-59
2022/07/22 03:15:50;;;;;;;7.10;6.50;;;15.50;99.90;;;;;;5076231;28;20865;-60
2022/07/22 03:18:18;;;;;;;7.80;7.10;;;15.60;99.90;;;;;;5077179;28;20436;-57
2022/07/22 03:20:45;;;;;;;6.97;6.37;;;15.50;99.90;;;;;;5076931;28;20500;-59
2022/07/22 03:23:23;;;;;;;8.57;7.70;;;15.30;99.90;;;;;;5076637;28;20490;-59
2022/07/22 03:25:50;;;;;;;9.43;8.53;;;15.40;99.90;;;;;;5076391;28;20591;-60
2022/07/22 03:28:18;;;;;;;16.37;14.80;;;15.50;99.90;;;;;;5076653;28;20502;-57
2022/07/22 03:30:45;;;;;;;17.17;15.47;;;15.40;99.90;;;;;;5076824;28;20436;-59
2022/07/22 03:33:14;;;;;;;17.80;15.60;;;15.30;99.90;;;;;;5076880;28;20875;-58
2022/07/22 03:35:41;;;;;;;21.20;19.07;;;15.40;99.90;;;;;;5076730;28;20432;-60
2022/07/22 03:38:09;;;;;;;19.20;17.17;;;15.30;99.90;;;;;;5076471;28;20527;-58
2022/07/22 03:40:38;;;;;;;22.83;20.57;;;15.40;99.90;;;;;;5076951;28;20871;-60
2022/07/22 03:43:05;;;;;;;24.57;20.60;;;15.50;99.90;;;;;;5076229;28;20443;-60
2022/07/22 03:45:35;;;;;;;25.10;20.13;;;15.40;99.90;;;;;;5075930;28;20493;-59
2022/07/22 03:48:03;;;;;;;23.77;21.00;;;15.40;99.90;;;;;;5076624;28;20436;-57
2022/07/22 03:50:32;;;;;;;22.93;19.17;;;15.40;99.90;;;;;;5076383;28;20435;-57
2022/07/22 03:52:59;;;;;;;27.50;21.37;;;15.40;99.90;;;;;;5076259;28;20435;-59
2022/07/22 03:55:26;;;;;;;20.77;18.50;;;15.30;99.90;;;;;;5079859;28;20435;-60
2022/07/22 03:57:57;;;;;;;20.43;17.57;;;15.40;99.90;;;;;;5079954;28;20469;-60
2022/07/22 04:00:25;;;;;;;22.70;18.77;;;15.50;99.90;;;;;;5080196;28;20465;-57
2022/07/22 04:02:52;;;;;;;18.80;16.87;;;15.40;99.90;;;;;;5079836;28;20530;-61
2022/07/22 04:05:19;;;;;;;22.10;19.77;;;15.50;99.90;;;;;;5079957;28;20466;-61
2022/07/22 04:07:50;;;;;;;23.23;19.03;;;15.60;99.90;;;;;;5080096;28;20548;-61
2022/07/22 04:10:17;;;;;;;19.57;17.70;;;15.70;99.90;;;;;;5079442;28;20772;-60
2022/07/22 04:12:44;;;;;;;21.30;18.00;;;15.60;99.90;;;;;;5079761;28;20461;-61
2022/07/22 04:15:13;;;;;;;17.50;15.23;;;15.50;99.90;;;;;;5079775;28;20514;-59
2022/07/22 04:17:43;;;;;;;16.47;13.00;;;15.60;99.90;;;;;;5080377;28;20747;-59
2022/07/22 04:20:13;;;;;;;14.67;12.93;;;15.50;99.90;;;;;;5080149;28;20890;-59
2022/07/22 04:22:40;;;;;;;16.33;14.37;;;15.40;99.90;;;;;;5080043;28;20439;-57
2022/07/22 04:25:08;;;;;;;12.27;11.00;;;15.50;99.90;;;;;;5080223;28;20467;-60
2022/07/22 04:27:36;;;;;;;10.70;9.60;;;15.40;99.90;;;;;;5078841;28;20539;-61
2022/07/22 04:30:04;;;;;;;14.17;9.77;;;15.30;99.90;;;;;;5079589;28;20428;-61
2022/07/22 04:32:33;;;;;;;14.00;10.37;;;15.30;99.90;;;;;;5079802;28;20442;-58
2022/07/22 04:35:00;;;;;;;9.30;8.07;;;15.20;99.90;;;;;;5078789;28;20767;-58
2022/07/22 04:37:30;;;;;;;9.03;7.00;;;15.20;99.90;;;;;;5079045;28;20436;-60
2022/07/22 04:40:03;;;;;;;8.70;7.50;;;15.10;99.90;;;;;;5079481;28;20443;-60
2022/07/22 04:42:30;;;;;;;9.30;7.60;;;15.20;99.90;;;;;;5079666;28;20440;-61
2022/07/22 04:44:58;;;;;;;8.70;7.17;;;15.30;99.90;;;;;;5079387;28;20489;-60
2022/07/22 04:47:25;;;;;;;11.83;7.00;;;15.20;99.90;;;;;;5079450;28;20827;-61
2022/07/22 04:49:53;;;;;;;8.67;7.67;;;15.30;99.90;;;;;;5079416;28;20443;-61
2022/07/22 04:52:22;;;;;;;11.13;7.90;;;15.30;99.90;;;;;;5079826;28;20459;-61
2022/07/22 04:54:50;;;;;;;11.03;9.10;;;15.40;99.90;;;;;;5079115;28;20535;-61
2022/07/22 04:57:17;;;;;;;11.47;9.33;;;15.50;99.90;;;;;;5079064;28;20534;-61
2022/07/22 04:59:44;;;;;;;15.93;10.87;;;15.60;99.90;;;;;;5078815;28;20472;-61
2022/07/22 05:02:12;;;;;;;11.20;10.10;;;15.50;99.90;;;;;;5078856;28;20530;-61
2022/07/22 05:04:39;;;;;;;12.97;11.60;;;15.50;99.90;;;;;;5078444;28;20468;-60
2022/07/22 05:07:08;;;;;;;14.60;13.10;;;15.50;99.90;;;;;;5078002;28;20436;-61
2022/07/22 05:09:35;;;;;;;16.40;12.57;;;15.50;99.90;;;;;;5079026;28;20453;-61
2022/07/22 05:12:02;;;;;;;17.70;11.73;;;15.50;99.90;;;;;;5078794;28;20461;-61
2022/07/22 05:14:29;;;;;;;14.30;10.83;;;15.60;99.90;;;;;;5078607;28;20472;-61
2022/07/22 05:16:59;;;;;;;9.57;8.60;;;15.60;99.90;;;;;;5078772;28;20896;-61
2022/07/22 05:19:26;;;;;;;10.60;9.60;;;15.40;99.90;;;;;;5077731;28;20440;-61
2022/07/22 05:21:54;;;;;;;12.40;8.00;;;15.30;99.90;;;;;;5077577;28;20483;-61
2022/07/22 05:24:22;;;;;;;11.17;8.03;;;15.40;99.90;;;;;;5077856;28;20555;-61
2022/07/22 05:26:49;;;;;;;12.27;7.50;;;15.40;99.90;;;;;;5077481;28;20464;-61
2022/07/22 05:29:17;;;;;;;10.90;6.03;;;15.50;99.90;;;;;;5078128;28;20439;-61
2022/07/22 05:31:44;;;;;;;11.90;7.90;;;15.50;99.90;;;;;;5078297;28;20718;-62
2022/07/22 05:34:13;;;;;;;9.50;7.17;;;15.50;99.90;;;;;;5078075;28;20471;-62
2022/07/22 05:36:46;;;;;;;9.60;6.80;;;15.60;99.90;;;;;;5078161;28;20428;-62
2022/07/22 05:39:14;;;;;;;13.07;8.07;;;15.60;99.90;;;;;;5077798;28;20440;-62
2022/07/22 05:41:46;;;;;;;12.67;7.67;;;15.70;99.90;;;;;;5077550;28;20473;-62
2022/07/22 05:44:13;;;;;;;8.90;7.03;;;15.90;99.90;;;;;;5076719;28;20913;-62
2022/07/22 05:46:40;;;;;;;12.00;8.33;;;15.90;99.90;;;;;;5077441;28;20475;-62
2022/07/22 05:49:10;;;;;;;13.10;8.03;;;15.90;99.90;;;;;;5077318;28;20457;-62
2022/07/22 05:51:40;;;;;;;8.87;7.10;;;15.90;99.90;;;;;;5078241;28;20930;-62
2022/07/22 05:54:07;;;;;;;8.37;7.57;;;16.00;99.90;;;;;;5078817;28;20856;-62
2022/07/22 05:56:35;;;;;;;11.70;7.70;;;16.00;99.90;;;;;;5079244;28;20439;-62
2022/07/22 05:59:03;;;;;;;8.47;7.50;;;16.10;99.90;;;;;;5079251;28;20440;-62
2022/07/22 06:01:34;;;;;;;10.53;7.70;;;16.10;99.90;;;;;;5078895;28;20462;-62
2022/07/22 06:04:01;;;;;;;11.30;7.77;;;16.20;99.90;;;;;;5079777;28;20849;-62
2022/07/22 06:06:32;;;;;;;8.57;7.23;;;16.20;99.90;;;;;;5079189;28;20499;-62
2022/07/22 06:08:59;;;;;;;8.80;7.60;;;16.20;99.90;;;;;;5079745;28;20497;-62
2022/07/22 06:11:27;;;;;;;8.20;7.40;;;16.30;99.90;;;;;;5081392;28;20493;-62
2022/07/22 06:13:54;;;;;;;8.80;7.63;;;16.40;99.90;;;;;;5081413;28;20493;-62
2022/07/22 06:16:29;;;;;;;12.60;8.43;;;16.40;99.90;;;;;;5079618;28;20438;-62
2022/07/22 06:19:00;;;;;;;10.53;7.60;;;16.40;99.90;;;;;;5080151;28;20534;-62
2022/07/22 06:21:27;;;;;;;10.60;6.53;;;16.40;99.90;;;;;;5080287;28;20478;-62
2022/07/22 06:23:58;;;;;;;7.23;6.33;;;16.40;99.90;;;;;;5078162;28;20447;-62
2022/07/22 06:26:32;;;;;;;9.57;7.17;;;16.50;99.90;;;;;;5077595;28;20537;-63
2022/07/22 06:29:03;;;;;;;9.00;6.93;;;16.40;99.90;;;;;;5077901;28;20494;-63
2022/07/22 06:31:31;;;;;;;13.63;7.27;;;16.50;99.90;;;;;;5077275;28;20543;-63
2022/07/22 06:33:59;;;;;;;13.33;6.90;;;16.50;99.90;;;;;;5077771;28;20841;-63
2022/07/22 06:36:29;;;;;;;9.23;7.67;;;16.60;99.90;;;;;;5077662;28;20461;-63
2022/07/22 06:39:04;;;;;;;11.93;7.97;;;16.70;99.90;;;;;;5077028;28;20530;-63
2022/07/22 06:41:31;;;;;;;9.90;7.50;;;16.80;99.90;;;;;;5077195;28;20854;-63
2022/07/22 06:43:59;;;;;;;11.60;7.50;;;16.80;99.90;;;;;;5077712;28;20435;-63
2022/07/22 06:46:27;;;;;;;11.20;8.70;;;16.90;99.90;;;;;;5076962;28;20565;-63
2022/07/22 06:48:59;;;;;;;10.00;9.00;;;16.90;99.90;;;;;;5077036;28;20776;-63
2022/07/22 06:51:28;;;;;;;12.07;10.63;;;16.90;99.90;;;;;;5076227;28;20464;-63
2022/07/22 06:53:56;;;;;;;12.33;10.40;;;16.80;99.90;;;;;;5076702;28;20548;-63
2022/07/22 06:56:26;;;;;;;12.07;9.40;;;16.80;99.90;;;;;;5077046;28;20439;-63
2022/07/22 06:58:54;;;;;;;10.53;9.53;;;16.70;99.90;;;;;;5076666;28;20754;-63
2022/07/22 07:01:21;;;;;;;11.23;9.93;;;16.50;99.90;;;;;;5075915;28;20594;-63
2022/07/22 07:03:50;;;;;;;10.17;9.17;;;16.50;99.90;;;;;;5077133;28;20759;-63
2022/07/22 07:06:26;;;;;;;12.87;9.70;;;16.60;99.90;;;;;;5077351;28;20560;-63
2022/07/22 07:08:57;;;;;;;11.13;9.80;;;16.50;99.90;;;;;;5077766;28;20457;-63
2022/07/22 07:11:34;;;;;;;10.37;9.27;;;16.70;99.90;;;;;;5077382;28;20739;-63
2022/07/22 07:14:01;;;;;;;15.10;9.93;;;16.70;99.90;;;;;;5077065;28;20801;-63
2022/07/22 07:16:28;;;;;;;10.70;9.70;;;16.70;99.90;;;;;;5077523;28;20456;-63
2022/07/22 07:18:57;;;;;;;12.33;10.60;;;16.80;99.90;;;;;;5076584;28;20896;-63
2022/07/22 07:21:26;;;;;;;11.47;10.30;;;16.80;99.90;;;;;;5075987;28;20535;-63
2022/07/22 07:23:54;;;;;;;11.90;10.67;;;16.80;99.90;;;;;;5073254;28;20435;-63
2022/07/22 07:26:22;;;;;;;11.10;10.03;;;16.80;99.90;;;;;;5076130;28;20481;-63
2022/07/22 07:28:49;;;;;;;11.30;10.30;;;16.80;1.00;;;;;;5077209;28;20465;-63
2022/07/22 07:31:18;;;;;;;12.70;10.67;;;16.90;99.90;;;;;;5079260;28;20428;-63
2022/07/22 07:33:51;;;;;;;12.00;9.53;;;16.90;1.00;;;;;;5079587;28;20464;-63
2022/07/22 07:36:18;;;;;;;8.47;7.57;;;16.90;1.00;;;;;;5077971;28;20424;-63
2022/07/22 07:38:47;;;;;;;10.93;8.07;;;16.80;99.90;;;;;;5079344;28;20464;-63
2022/07/22 07:41:15;;;;;;;8.63;7.83;;;16.70;99.90;;;;;;5079681;28;20428;-63
2022/07/22 07:43:42;;;;;;;8.27;6.67;;;16.70;99.90;;;;;;5079934;28;20689;-63
2022/07/22 07:46:12;;;;;;;8.27;6.03;;;16.60;1.00;;;;;;5080262;28;20457;-63
2022/07/22 07:48:40;;;;;;;8.53;6.93;;;16.60;14.30;;;;;;5079234;28;20451;-63
2022/07/22 07:51:12;;;;;;;10.90;8.23;;;16.70;99.90;;;;;;5079471;28;20468;-64
2022/07/22 07:53:43;;;;;;;7.90;7.10;;;16.70;99.90;;;;;;5080120;28;20465;-63
2022/07/22 07:56:15;;;;;;;11.70;9.20;;;16.70;11.60;;;;;;5075852;28;20474;-63
2022/07/22 07:58:42;;;;;;;10.50;7.40;;;16.80;1.00;;;;;;5059088;28;20441;-63
2022/07/22 08:01:10;;;;;;;9.00;7.27;;;16.70;99.90;;;;;;5058908;28;20469;-63
2022/07/22 08:03:39;;;;;;;11.70;7.90;;;16.90;1.00;;;;;;5059521;28;20462;-63
2022/07/22 08:06:07;;;;;;;9.93;7.40;;;16.70;99.90;;;;;;5059413;28;20937;-63
2022/07/22 08:08:34;;;;;;;9.20;7.97;;;16.60;1.00;;;;;;5059650;28;20524;-63
2022/07/22 08:11:04;;;;;;;10.23;8.53;;;16.50;1.00;;;;;;5058990;28;20479;-63
2022/07/22 08:13:40;;;;;;;9.23;8.23;;;16.50;1.00;;;;;;5059290;28;20462;-63
2022/07/22 08:16:09;;;;;;;10.80;7.23;;;16.60;1.00;;;;;;5059965;28;20511;-64
2022/07/22 08:18:46;;;;;;;9.10;8.20;;;16.60;99.90;;;;;;5059545;28;20489;-63
2022/07/22 08:21:13;;;;;;;8.70;7.20;;;16.70;99.90;;;;;;5059440;28;20747;-63
2022/07/22 08:23:40;;;;;;;8.60;7.27;;;16.70;99.90;;;;;;5059236;28;20443;-64
2022/07/22 08:26:09;;;;;;;9.87;6.97;;;16.70;1.00;;;;;;5059440;28;20499;-64
2022/07/22 08:28:40;;;;;;;7.90;6.70;;;16.70;1.00;;;;;;5059602;28;20444;-64
2022/07/22 08:31:17;;;;;;;8.50;6.13;;;16.70;99.90;;;;;;5059154;28;20436;-64
2022/07/22 08:33:47;;;;;;;8.60;6.77;;;16.80;1.00;;;;;;5058795;28;20465;-64
2022/07/22 08:36:17;;;;;;;8.80;6.40;;;17.00;1.00;;;;;;5059248;28;20458;-64
2022/07/22 08:38:44;;;;;;;6.93;5.20;;;16.90;99.90;;;;;;5058825;28;20779;-65
2022/07/22 08:41:16;;;;;;;6.93;6.00;;;16.70;18.10;;;;;;5058399;28;20465;-65
2022/07/22 08:43:49;;;;;;;6.77;5.53;;;16.60;99.90;;;;;;5059195;28;20749;-65
2022/07/22 08:46:16;;;;;;;9.50;6.27;;;16.70;99.90;;;;;;5058962;28;20949;-65
2022/07/22 08:48:43;;;;;;;8.13;5.30;;;16.80;99.90;;;;;;5057930;28;20561;-65
2022/07/22 08:51:16;;;;;;;8.23;6.10;;;17.10;99.90;;;;;;5057762;28;20461;-65
2022/07/22 08:53:46;;;;;;;6.23;5.10;;;17.20;99.90;;;;;;5069333;28;20908;-65
2022/07/22 08:56:15;;;;;;;10.47;5.97;;;17.40;99.90;;;;;;5078568;28;20579;-66
2022/07/22 08:58:44;;;;;;;7.80;5.87;;;17.20;1.00;;;;;;5078126;28;20504;-65
2022/07/22 09:01:15;;;;;;;10.90;6.63;;;17.30;1.00;;;;;;5077505;28;20447;-65
2022/07/22 09:03:49;;;;;;;8.20;5.83;;;17.50;1.00;;;;;;5078407;28;20790;-65
2022/07/22 09:06:20;;;;;;;8.97;5.83;;;17.60;1.00;;;;;;5078492;28;20461;-65
2022/07/22 09:08:55;;;;;;;11.13;6.50;;;17.60;1.00;;;;;;5078238;28;20971;-65
2022/07/22 09:11:29;;;;;;;9.47;6.27;;;17.40;1.00;;;;;;5078604;28;20439;-65
2022/07/22 09:13:59;;;;;;;6.93;6.23;;;17.20;52.30;;;;;;5078651;28;20461;-66
2022/07/22 09:16:41;;;;;;;11.23;6.60;;;17.10;1.00;;;;;;5078684;28;20983;-65
2022/07/22 09:19:14;;;;;;;9.73;6.90;;;17.20;62.40;;;;;;5078084;28;20469;-65
2022/07/22 09:21:49;;;;;;;8.80;7.50;;;17.40;14.50;;;;;;5078124;28;20446;-65
2022/07/22 09:24:30;;;;;;;10.23;7.50;;;17.30;1.00;;;;;;5078816;28;20752;-65
2022/07/22 09:26:57;;;;;;;10.50;7.87;;;17.30;1.00;;;;;;5078109;28;20468;-65
2022/07/22 09:29:28;;;;;;;9.30;8.50;;;17.60;99.90;;;;;;5078013;28;20753;-65
2022/07/22 09:31:57;;;;;;;9.40;8.40;;;17.60;1.00;;;;;;5078280;28;20462;-65
2022/07/22 09:34:31;;;;;;;10.90;9.43;;;17.80;1.00;;;;;;5078463;28;20764;-65
2022/07/22 09:37:01;;;;;;;9.27;8.37;;;17.80;1.00;;;;;;5077901;28;20530;-65
2022/07/22 09:39:33;;;;;;;10.33;9.33;;;17.70;1.00;;;;;;5078126;28;20463;-64
2022/07/22 09:42:01;;;;;;;11.07;9.73;;;17.90;1.00;;;;;;5077870;28;20467;-64
2022/07/22 09:44:30;;;;;;;11.90;10.40;;;17.90;1.00;;;;;;5076726;28;20493;-64
2022/07/22 09:47:02;;;;;;;12.97;11.67;;;17.70;1.00;;;;;;5076713;28;20786;-65
2022/07/22 09:49:34;;;;;;;11.43;10.43;;;17.60;1.00;;;;;;5073830;28;20452;-64
2022/07/22 09:52:06;;;;;;;12.87;11.50;;;17.80;1.00;;;;;;5075472;28;20489;-64
2022/07/22 09:54:37;;;;;;;15.10;12.87;;;18.00;1.00;;;;;;5076453;28;20461;-64
2022/07/22 09:57:05;;;;;;;14.60;13.20;;;18.10;1.00;;;;;;5075355;28;20425;-64
2022/07/22 09:59:36;;;;;;;13.57;11.33;;;18.30;1.00;;;;;;5075910;28;20450;-64
2022/07/22 10:02:05;;;;;;;11.73;10.73;;;18.30;1.00;;;;;;5075320;28;20461;-64
2022/07/22 10:04:36;;;;;;;18.60;12.60;;;18.00;1.00;;;;;;5075465;28;20450;-63
2022/07/22 10:07:08;;;;;;;16.03;12.47;;;18.20;1.00;;;;;;5075244;28;20584;-63
2022/07/22 10:09:38;;;;;;;13.63;12.33;;;18.20;1.00;;;;;;5072302;28;20435;-63
2022/07/22 10:12:08;;;;;;;12.03;10.93;;;18.40;1.00;;;;;;5075921;28;20457;-63
2022/07/22 10:14:38;;;;;;;12.37;11.17;;;18.60;1.00;;;;;;5076856;28;20446;-63
2022/07/22 10:17:13;;;;;;;14.83;12.40;;;18.60;1.00;;;;;;5073484;28;20452;-63
2022/07/22 10:19:40;;;;;;;13.00;11.53;;;18.40;1.00;;;;;;5075768;28;20904;-63
2022/07/22 10:22:53;;;;;;;13.67;12.37;;;18.40;1.00;;;;;;5075517;28;20505;-64
2022/07/22 10:25:23;;;;;;;15.10;12.27;;;18.80;1.00;;;;;;5073914;28;20467;-64
2022/07/22 10:27:55;;;;;;;13.00;11.57;;;19.00;1.00;;;;;;5073403;28;20464;-64
2022/07/22 10:30:27;;;;;;;12.93;11.57;;;19.20;1.00;;;;;;5073440;28;20531;-64
2022/07/22 10:33:12;;;;;;;13.93;12.53;;;19.20;1.00;;;;;;5074382;28;20428;-64
2022/07/22 10:35:55;;;;;;;13.47;12.07;;;19.00;1.00;;;;;;5073006;28;20438;-64
2022/07/22 10:38:24;;;;;;;13.73;12.43;;;18.70;1.00;;;;;;5073689;28;20450;-64
2022/07/22 10:40:58;;;;;;;13.70;12.50;;;18.80;1.00;;;;;;5075621;28;20443;-64
2022/07/22 10:43:27;;;;;;;13.67;12.27;;;18.60;1.00;;;;;;5074312;28;20431;-64
2022/07/22 10:46:06;;;;;;;14.43;12.93;;;19.00;1.00;;;;;;5075350;28;20519;-64
2022/07/22 10:48:54;;;;;;;15.37;12.50;;;19.30;1.00;;;;;;5075968;28;20462;-64
2022/07/22 10:51:22;;;;;;;12.73;11.60;;;19.30;1.00;;;;;;5073085;28;20473;-63
2022/07/22 10:53:58;;;;;;;13.70;12.50;;;19.20;1.00;;;;;;5075464;28;20834;-64
2022/07/22 10:56:27;;;;;;;14.23;12.93;;;19.20;1.00;;;;;;5074227;28;20782;-63
2022/07/22 10:59:01;;;;;;;14.07;12.73;;;19.40;1.00;;;;;;5076145;28;20481;-64
2022/07/22 11:01:34;;;;;;;12.53;11.43;;;19.60;1.00;;;;;;5074142;28;20424;-63
2022/07/22 11:04:23;;;;;;;13.83;12.43;;;19.60;1.00;;;;;;5080459;28;20458;-64
2022/07/22 11:06:52;;;;;;;12.70;11.60;;;19.90;1.00;;;;;;5078044;28;20500;-63
2022/07/22 11:09:23;;;;;;;12.77;11.60;;;20.00;1.00;;;;;;5081416;28;20471;-63
2022/07/22 11:11:55;;;;;;;13.67;12.23;;;20.10;1.00;;;;;;5080360;28;20608;-63
2022/07/22 11:14:27;;;;;;;14.50;13.10;;;20.40;1.00;;;;;;5080360;28;20461;-63
2022/07/22 11:17:00;;;;;;;14.00;12.70;;;20.60;1.00;;;;;;5080651;28;20457;-63
2022/07/22 11:19:43;;;;;;;12.90;11.80;;;20.70;1.00;;;;;;5080509;28;20476;-63
2022/07/22 11:22:13;;;;;;;14.23;12.90;;;20.70;1.00;;;;;;5078968;28;20457;-63
2022/07/22 11:24:44;;;;;;;12.83;11.73;;;20.70;99.90;;;;;;5078728;28;21109;-63
2022/07/22 11:27:16;;;;;;;12.20;11.10;;;20.40;99.90;;;;;;5078531;28;20495;-63
2022/07/22 11:29:50;;;;;;;12.97;11.87;;;20.20;99.90;;;;;;5077241;28;20817;-63
2022/07/22 11:32:23;;;;;;;13.70;12.50;;;19.60;99.90;;;;;;5079305;28;20476;-63
2022/07/22 11:34:55;;;;;;;14.17;12.83;;;19.60;1.00;;;;;;5076999;28;20428;-63
2022/07/22 11:37:26;;;;;;;14.60;13.10;;;19.90;1.00;;;;;;5078520;28;20860;-63
2022/07/22 11:40:04;;;;;;;19.80;17.80;;;19.70;99.90;;;;;;5079294;28;20463;-63
2022/07/22 11:42:32;;;;;;;15.63;14.03;;;19.80;1.00;;;;;;5078419;28;20742;-63
2022/07/22 11:45:00;;;;;;;15.13;13.73;;;19.60;1.00;;;;;;5077823;28;20955;-63
2022/07/22 11:47:35;;;;;;;14.17;12.70;;;19.60;1.00;;;;;;5076344;28;20973;-63
2022/07/22 11:50:02;;;;;;;13.27;12.17;;;19.70;1.00;;;;;;5078582;28;20448;-63
2022/07/22 11:52:29;;;;;;;13.57;12.17;;;19.50;1.00;;;;;;5078314;28;20569;-63
2022/07/22 11:54:59;;;;;;;12.87;11.57;;;19.80;1.00;;;;;;5079069;28;20782;-63
2022/07/22 11:57:30;;;;;;;14.30;13.00;;;20.20;1.00;;;;;;5079715;28;20740;-63
2022/07/22 12:00:12;;;;;;;14.00;12.70;;;20.90;1.00;;;;;;5078950;28;20476;-63
2022/07/22 12:02:41;;;;;;;13.57;12.10;;;21.50;99.90;;;;;;5076889;28;20959;-63
2022/07/22 12:05:14;;;;;;;12.97;11.67;;;21.30;99.90;;;;;;5078020;28;20860;-63
2022/07/22 12:07:41;;;;;;;12.73;11.53;;;21.00;99.90;;;;;;5077610;28;20572;-63
2022/07/22 12:10:09;;;;;;;12.70;11.47;;;21.70;99.90;;;;;;5079866;28;20469;-62
2022/07/22 12:12:43;;;;;;;13.10;11.90;;;22.50;99.90;;;;;;5082289;28;20529;-62
2022/07/22 12:15:11;;;;;;;11.87;10.70;;;22.70;99.90;;;;;;5078866;28;20540;-62
2022/07/22 12:17:45;;;;;;;13.07;11.53;;;22.90;99.90;;;;;;5078270;28;20594;-62
2022/07/22 12:20:14;;;;;;;12.23;11.23;;;23.00;99.90;;;;;;5079651;28;20571;-62
2022/07/22 12:22:52;;;;;;;11.90;10.80;;;23.20;99.90;;;;;;5081624;28;20881;-62
2022/07/22 12:25:19;;;;;;;13.17;11.97;;;23.60;99.90;;;;;;5079143;28;20473;-62
2022/07/22 12:28:01;;;;;;;11.63;10.63;;;23.70;99.90;;;;;;5080353;28;20466;-62
2022/07/22 12:30:30;;;;;;;11.53;10.43;;;23.60;99.90;;;;;;5078229;28;20473;-61
2022/07/22 12:33:02;;;;;;;11.27;10.37;;;23.60;99.90;;;;;;5078568;28;20471;-62
2022/07/22 12:35:29;;;;;;;11.90;10.70;;;23.70;99.90;;;;;;5076787;28;20898;-62
2022/07/22 12:38:08;;;;;;;10.63;9.63;;;23.80;99.90;;;;;;5078861;28;20471;-62
2022/07/22 12:40:41;;;;;;;12.37;11.13;;;23.30;99.90;;;;;;5081383;28;20449;-62
2022/07/22 12:43:25;;;;;;;13.47;12.17;;;22.90;99.90;;;;;;5081400;28;20454;-62
2022/07/22 12:45:56;;;;;;;12.83;11.60;;;23.30;99.90;;;;;;5081441;28;20465;-62
2022/07/22 12:48:31;;;;;;;10.80;9.90;;;23.40;99.90;;;;;;5082002;28;20758;-63
2022/07/22 12:51:08;;;;;;;11.70;10.53;;;23.30;99.90;;;;;;5084567;28;20875;-63